createdAt,value
2023-05-05T06:45:15.217Z,25.70
2023-05-05T06:47:42.617Z,25.74
2023-05-05T07:07:17.702Z,20.49
2023-05-05T07:14:36.991Z,19.17
2023-05-05T08:18:07.474Z,21.23
2023-05-05T08:20:34.132Z,21.82
2023-05-05T08:23:00.590Z,22.66
2023-05-05T08:32:53.518Z,23.39
2023-05-05T08:42:40.371Z,23.59
2023-05-05T08:45:08.884Z,23.60
2023-05-05T08:47:36.858Z,23.76
2023-05-05T08:50:04.366Z,23.87
2023-05-05T08:52:37.888Z,24.63
2023-05-05T08:55:18.010Z,24.69
2023-05-05T09:00:20.242Z,24.45
2023-05-05T09:02:47.793Z,23.52
2023-05-05T09:05:14.597Z,22.97
2023-05-05T09:07:41.195Z,22.31
2023-05-05T09:10:11.844Z,22.23
2023-05-05T09:12:39.270Z,22.44
2023-05-05T09:15:11.024Z,22.30
2023-05-05T09:17:38.480Z,22.42
2023-05-05T09:20:10.508Z,23.18
2023-05-05T09:22:47.331Z,24.40
2023-05-05T09:25:17.955Z,25.07
2023-05-05T09:27:49.198Z,25.36
2023-05-05T09:30:25.255Z,24.88
2023-05-05T09:32:53.788Z,24.00
2023-05-05T09:35:21.355Z,22.94
2023-05-05T09:37:48.059Z,22.59
2023-05-05T09:40:17.234Z,22.48
2023-05-05T09:42:44.754Z,22.90
2023-05-05T09:45:17.372Z,22.57
2023-05-05T09:47:47.606Z,22.55
2023-05-05T09:50:15.869Z,22.73
2023-05-05T09:52:42.943Z,23.10
2023-05-05T09:55:19.713Z,23.70
2023-05-05T09:57:46.344Z,22.72
2023-05-05T10:00:13.748Z,22.13
2023-05-05T10:02:40.560Z,21.77
2023-05-05T10:05:09.814Z,21.58
